Hector, New York
Current Conditions -  °F | °C
As of 10:53 AM on Friday 31 Oct 2014 (Local Time) from KPEO Reporting Station
Broken Clouds Broken Clouds  
Wind Chill: 43°   Ceiling: 6000
Heat Index: 46°   Visibility: 10mi
Dew Point: 36°   Wind: 6mph
Humidity: 68%   Direction: 220°SW
Pressure: 29.97"   Gusts: NA
Location:  42.5°N, 76.87°W
Report Text: KPEO 311453Z AUTO 22005KT 10SM BKN060 08/02 A2997 RMK AO2 SLP156 T00780022 58004
Loading
Personal Weather Stations






























Interactive Weather Map
Tropical Storm Tracking
New forecast layout! Learn more

10-Day Weather Forecast

Advertisements
Track Severe Weather on mobile